createdAt,value
2023-04-02T00:00:36.980Z,89.90
2023-04-02T00:03:10.555Z,90.01
2023-04-02T00:05:50.342Z,90.03
2023-04-02T00:08:22.126Z,89.84
2023-04-02T00:10:54.532Z,89.66
2023-04-02T00:13:44.785Z,88.98
2023-04-02T00:16:14.134Z,89.49
2023-04-02T00:18:46.566Z,89.03
2023-04-02T00:21:26.303Z,89.28
2023-04-02T00:23:58.886Z,89.28
2023-04-02T00:26:37.356Z,89.60
2023-04-02T00:29:06.360Z,89.05
2023-04-02T00:31:34.749Z,88.68
2023-04-02T00:34:04.742Z,88.80
2023-04-02T00:36:36.371Z,88.67
2023-04-02T00:39:08.634Z,89.20
2023-04-02T00:41:38.941Z,88.36
2023-04-02T00:44:06.019Z,88.88
2023-04-02T00:46:47.112Z,89.30
2023-04-02T00:49:31.376Z,89.40
2023-04-02T00:52:01.829Z,89.46
2023-04-02T00:54:37.241Z,88.84
2023-04-02T00:57:04.128Z,89.16
2023-04-02T00:59:42.819Z,88.95
2023-04-02T01:02:18.441Z,88.71
2023-04-02T01:04:57.480Z,88.64
2023-04-02T01:07:38.992Z,89.05
2023-04-02T01:10:11.756Z,89.36
2023-04-02T01:12:57.318Z,88.88
2023-04-02T01:15:42.949Z,89.23
2023-04-02T01:18:33.249Z,89.19
2023-04-02T01:21:15.140Z,89.05
2023-04-02T01:24:00.379Z,89.16
2023-04-02T01:26:34.161Z,89.38
2023-04-02T01:29:06.924Z,89.47
2023-04-02T01:31:34.692Z,89.60
2023-04-02T01:34:04.289Z,89.36
2023-04-02T01:37:27.831Z,89.26
2023-04-02T01:40:21.522Z,89.34
2023-04-02T01:42:51.123Z,89.27
2023-04-02T01:45:21.752Z,89.36
2023-04-02T01:47:49.356Z,89.58
2023-04-02T01:50:31.677Z,89.18
2023-04-02T01:53:05.127Z,88.74
2023-04-02T01:55:38.629Z,88.67
2023-04-02T01:58:06.174Z,88.79
2023-04-02T02:00:36.242Z,89.21
2023-04-02T02:03:06.259Z,88.45
2023-04-02T02:05:33.370Z,89.08
2023-04-02T02:08:01.312Z,89.14
2023-04-02T02:10:34.374Z,88.91
2023-04-02T02:13:01.465Z,88.70
2023-04-02T02:15:28.838Z,89.44
2023-04-02T02:18:00.968Z,89.00
2023-04-02T02:20:29.027Z,88.62
2023-04-02T02:22:56.736Z,88.19
2023-04-02T02:25:34.806Z,88.44
2023-04-02T02:28:03.691Z,88.52
2023-04-02T02:30:36.127Z,88.88
2023-04-02T02:33:06.872Z,88.67
2023-04-02T02:35:43.371Z,88.55
2023-04-02T02:38:13.348Z,88.44
2023-04-02T02:40:45.454Z,89.18
2023-04-02T02:43:14.819Z,88.62
2023-04-02T02:45:44.021Z,88.41
2023-04-02T02:48:14.803Z,87.77
2023-04-02T02:50:41.695Z,88.34
2023-04-02T02:53:24.002Z,88.21
2023-04-02T02:55:59.461Z,88.35
2023-04-02T02:58:32.937Z,88.24
2023-04-02T03:01:07.186Z,87.92
2023-04-02T03:03:36.623Z,88.52
2023-04-02T03:06:10.563Z,87.98
2023-04-02T03:08:46.473Z,88.22
2023-04-02T03:11:42.988Z,87.39
2023-04-02T03:14:32.291Z,87.40
2023-04-02T03:17:09.002Z,87.00
2023-04-02T03:19:46.626Z,87.52
2023-04-02T03:22:27.080Z,87.84
2023-04-02T03:25:16.358Z,88.28
2023-04-02T03:27:47.511Z,87.99
2023-04-02T03:30:29.194Z,87.60
2023-04-02T03:33:03.281Z,87.46
2023-04-02T03:35:47.166Z,87.78
2023-04-02T03:38:27.884Z,87.22
2023-04-02T03:41:19.676Z,87.47
2023-04-02T03:43:49.821Z,87.33
2023-04-02T03:46:26.141Z,87.61
2023-04-02T03:49:03.435Z,87.70
2023-04-02T03:51:48.863Z,87.29
2023-04-02T03:54:16.761Z,87.10
2023-04-02T03:56:47.232Z,87.85
2023-04-02T03:59:34.668Z,88.11
2023-04-02T04:02:04.503Z,87.65
2023-04-02T04:04:32.492Z,87.05
2023-04-02T04:07:01.056Z,87.48
2023-04-02T04:09:37.000Z,87.85
2023-04-02T04:12:16.043Z,87.86
2023-04-02T04:14:48.817Z,87.10
2023-04-02T04:17:34.931Z,87.79
2023-04-02T04:20:23.521Z,87.83
2023-04-02T04:22:55.818Z,87.51
2023-04-02T04:25:30.543Z,87.73
2023-04-02T04:28:08.201Z,87.06
2023-04-02T04:31:00.028Z,87.58
2023-04-02T04:33:34.648Z,87.62
2023-04-02T04:36:14.718Z,87.01
2023-04-02T04:38:44.308Z,87.29
2023-04-02T04:41:17.557Z,87.34
2023-04-02T04:44:23.398Z,87.73
2023-04-02T04:47:02.283Z,87.49
2023-04-02T04:49:51.806Z,88.02
2023-04-02T04:52:25.899Z,88.26
2023-04-02T04:54:52.672Z,87.38
2023-04-02T04:57:30.389Z,88.58
2023-04-02T05:00:07.260Z,87.36
2023-04-02T05:02:48.907Z,87.62
2023-04-02T05:05:24.821Z,87.68
2023-04-02T05:07:59.880Z,88.42
2023-04-02T05:10:50.851Z,88.18
2023-04-02T05:13:40.391Z,88.37
2023-04-02T05:16:16.250Z,87.53
2023-04-02T05:19:07.962Z,87.98
2023-04-02T05:22:00.117Z,87.54
2023-04-02T05:24:40.215Z,87.50
2023-04-02T05:27:33.558Z,87.53
2023-04-02T05:30:11.473Z,87.01
2023-04-02T05:32:48.439Z,87.29
2023-04-02T05:35:18.962Z,87.37
2023-04-02T05:37:46.715Z,86.62
2023-04-02T05:40:22.954Z,86.97
2023-04-02T05:42:52.916Z,86.70
2023-04-02T05:45:27.724Z,86.78
2023-04-02T05:48:01.680Z,88.25
2023-04-02T05:50:43.896Z,87.28
2023-04-02T05:53:25.600Z,87.12
2023-04-02T05:56:07.749Z,88.17
2023-04-02T05:58:43.948Z,86.96
2023-04-02T06:01:47.201Z,86.80
2023-04-02T06:04:29.884Z,86.80
2023-04-02T06:07:01.594Z,86.26
2023-04-02T06:09:55.754Z,86.00
2023-04-02T06:12:48.891Z,86.79
2023-04-02T06:15:21.474Z,86.89
2023-04-02T06:18:00.580Z,86.43
2023-04-02T06:20:28.231Z,85.91
2023-04-02T06:23:03.879Z,87.03
2023-04-02T06:25:35.340Z,86.61
2023-04-02T06:28:06.988Z,86.49
2023-04-02T06:30:36.931Z,85.40
2023-04-02T06:33:05.657Z,85.55
2023-04-02T06:35:38.956Z,85.48
2023-04-02T06:38:12.570Z,84.50
2023-04-02T06:40:49.862Z,85.20
2023-04-02T06:43:46.085Z,85.14
2023-04-02T06:46:52.449Z,85.31
2023-04-02T06:49:25.736Z,86.12
2023-04-02T06:52:01.024Z,85.89
2023-04-02T06:54:29.581Z,84.56
2023-04-02T06:57:00.086Z,85.13
2023-04-02T06:59:39.080Z,84.66
2023-04-02T07:02:35.832Z,84.90
2023-04-02T07:05:09.383Z,85.27
2023-04-02T07:07:39.963Z,85.56
2023-04-02T07:10:10.107Z,85.68
2023-04-02T07:12:36.736Z,86.20
2023-04-02T07:15:03.958Z,85.03
2023-04-02T07:17:30.981Z,85.47
2023-04-02T07:19:57.732Z,85.75
2023-04-02T07:22:25.666Z,85.18
2023-04-02T07:24:56.271Z,85.53
2023-04-02T07:27:22.991Z,86.04
2023-04-02T07:29:49.559Z,85.12
2023-04-02T07:32:17.202Z,84.16
2023-04-02T07:34:43.922Z,84.71
2023-04-02T07:37:14.506Z,84.23
2023-04-02T07:39:41.755Z,84.10
2023-04-02T07:42:08.625Z,84.89
2023-04-02T07:44:35.308Z,84.80
2023-04-02T07:47:02.079Z,84.13
2023-04-02T07:49:28.740Z,83.43
2023-04-02T07:51:55.433Z,83.03
2023-04-02T07:54:22.271Z,84.58
2023-04-02T07:56:48.879Z,83.38
2023-04-02T07:59:15.518Z,83.64
2023-04-02T08:01:43.140Z,84.42
2023-04-02T08:04:18.310Z,82.74
2023-04-02T08:06:46.051Z,82.97
2023-04-02T08:09:13.269Z,81.99
2023-04-02T08:11:42.082Z,82.18
2023-04-02T08:14:09.813Z,82.34
2023-04-02T08:16:46.087Z,81.20
2023-04-02T08:19:13.201Z,80.97
2023-04-02T08:21:39.815Z,80.73
2023-04-02T08:24:07.800Z,81.08
2023-04-02T08:26:34.503Z,79.50
2023-04-02T08:29:01.055Z,80.68
2023-04-02T08:31:27.710Z,79.18
2023-04-02T08:33:56.728Z,78.39
2023-04-02T08:36:33.119Z,79.18
2023-04-02T08:39:00.035Z,79.52
2023-04-02T08:41:27.957Z,77.74
2023-04-02T08:44:18.394Z,77.29
2023-04-02T08:46:50.861Z,75.65
2023-04-02T08:49:27.005Z,76.65
2023-04-02T08:51:53.611Z,76.08
2023-04-02T08:54:34.325Z,78.43
2023-04-02T08:57:12.191Z,78.01
2023-04-02T08:59:41.862Z,78.05
2023-04-02T09:02:41.620Z,77.93
2023-04-02T09:05:17.776Z,77.04
2023-04-02T09:07:47.203Z,78.79
2023-04-02T09:10:16.492Z,77.22
2023-04-02T09:12:48.227Z,77.53
2023-04-02T09:15:30.871Z,78.89
2023-04-02T09:18:04.425Z,78.29
2023-04-02T09:20:31.130Z,78.74
2023-04-02T09:22:58.977Z,77.90
2023-04-02T09:25:29.805Z,78.11
2023-04-02T09:27:57.495Z,77.78
2023-04-02T09:30:35.336Z,78.40
2023-04-02T09:33:09.947Z,79.76
2023-04-02T09:35:54.408Z,78.17
2023-04-02T09:38:35.929Z,79.64
2023-04-02T09:41:06.679Z,78.84
2023-04-02T09:43:35.440Z,78.57
2023-04-02T09:46:23.892Z,79.99
2023-04-02T09:48:55.733Z,79.52
2023-04-02T09:51:25.666Z,79.46
2023-04-02T09:54:16.398Z,79.17
2023-04-02T09:57:01.406Z,78.27
2023-04-02T09:59:28.608Z,77.43
2023-04-02T10:01:55.388Z,77.28
2023-04-02T10:04:34.254Z,77.09
2023-04-02T10:07:03.159Z,76.30
2023-04-02T10:09:35.300Z,77.36
2023-04-02T10:12:05.591Z,77.41
2023-04-02T10:14:37.615Z,78.66
2023-04-02T10:17:21.936Z,76.66
2023-04-02T10:19:54.733Z,77.64
2023-04-02T10:22:22.933Z,76.98
2023-04-02T10:24:51.188Z,77.14
2023-04-02T10:27:25.680Z,76.79
2023-04-02T10:30:17.242Z,77.02
2023-04-02T10:33:25.890Z,76.12
2023-04-02T10:36:30.345Z,76.58
2023-04-02T10:39:08.852Z,74.91
2023-04-02T10:41:46.719Z,76.17
2023-04-02T10:44:43.548Z,76.69
2023-04-02T10:47:34.618Z,74.75
2023-04-02T10:50:13.114Z,75.07
2023-04-02T10:52:46.541Z,76.15
2023-04-02T10:55:23.851Z,75.15
2023-04-02T10:57:53.609Z,76.81
2023-04-02T11:00:34.542Z,76.91
2023-04-02T11:03:07.356Z,77.26
2023-04-02T11:05:49.267Z,76.29
2023-04-02T11:08:48.811Z,75.67
2023-04-02T11:11:18.113Z,75.45
2023-04-02T11:13:58.620Z,74.58
2023-04-02T11:16:27.267Z,75.06
2023-04-02T11:19:18.804Z,74.27
2023-04-02T11:22:01.266Z,74.14
2023-04-02T11:24:32.785Z,75.45
2023-04-02T11:27:07.572Z,73.78
2023-04-02T11:29:38.452Z,75.74
2023-04-02T11:32:20.196Z,74.06
2023-04-02T11:35:03.060Z,74.84
2023-04-02T11:37:44.756Z,74.17
2023-04-02T11:40:11.653Z,73.96
2023-04-02T11:42:40.444Z,74.80
2023-04-02T11:45:28.557Z,75.36
2023-04-02T11:48:08.038Z,74.69
2023-04-02T11:50:43.595Z,73.21
2023-04-02T11:53:10.352Z,73.06
2023-04-02T11:55:38.884Z,71.99
2023-04-02T11:58:11.290Z,73.60
2023-04-02T12:01:16.578Z,72.01
2023-04-02T12:04:13.943Z,71.88
2023-04-02T12:06:46.923Z,72.56
2023-04-02T12:09:23.740Z,71.71
2023-04-02T12:12:01.926Z,72.12
2023-04-02T12:14:37.808Z,71.92
2023-04-02T12:17:16.316Z,71.79
2023-04-02T12:19:51.836Z,69.83
2023-04-02T12:22:30.817Z,70.82
2023-04-02T12:25:04.752Z,70.46
2023-04-02T12:27:32.010Z,69.94
2023-04-02T12:30:18.228Z,68.73
2023-04-02T12:32:44.915Z,69.34
2023-04-02T12:35:38.245Z,69.72
2023-04-02T12:38:04.846Z,68.55
2023-04-02T12:40:31.615Z,67.21
2023-04-02T12:42:58.302Z,68.27
2023-04-02T12:45:34.591Z,67.68
2023-04-02T12:48:06.008Z,68.02
2023-04-02T12:50:34.455Z,69.99
2023-04-02T12:53:01.660Z,69.43
2023-04-02T12:55:28.375Z,70.39
2023-04-02T12:57:56.888Z,67.84
2023-04-02T13:00:24.632Z,65.49
2023-04-02T13:02:52.462Z,67.71
2023-04-02T13:05:56.374Z,66.67
2023-04-02T13:08:38.162Z,66.56
2023-04-02T13:11:05.969Z,68.43
2023-04-02T13:13:36.031Z,67.24
2023-04-02T13:16:22.641Z,67.93
2023-04-02T13:18:50.324Z,68.32
2023-04-02T13:21:17.142Z,68.60
2023-04-02T13:23:45.973Z,68.64
2023-04-02T13:26:24.164Z,67.79
2023-04-02T13:29:01.269Z,68.80
2023-04-02T13:31:33.082Z,68.30
2023-04-02T13:34:00.172Z,68.27
2023-04-02T13:36:29.188Z,69.33
2023-04-02T13:38:56.510Z,68.89
2023-04-02T13:41:27.274Z,68.41
2023-04-02T13:43:55.429Z,69.20
2023-04-02T13:46:25.237Z,69.53
2023-04-02T13:48:53.562Z,70.18
2023-04-02T13:51:23.864Z,68.09
2023-04-02T13:53:55.792Z,69.92
2023-04-02T13:56:24.528Z,69.72
2023-04-02T13:58:52.079Z,69.33
2023-04-02T14:01:20.801Z,68.62
2023-04-02T14:03:47.504Z,69.01
2023-04-02T14:06:40.904Z,69.57
2023-04-02T14:09:19.099Z,68.83
2023-04-02T14:12:04.388Z,68.07
2023-04-02T14:14:47.262Z,67.81
2023-04-02T14:17:47.398Z,68.22
2023-04-02T14:20:20.192Z,68.04
2023-04-02T14:22:55.464Z,69.35
2023-04-02T14:25:40.900Z,69.60
2023-04-02T14:28:23.528Z,68.67
2023-04-02T14:31:23.764Z,68.55
2023-04-02T14:34:02.742Z,67.77
2023-04-02T14:36:57.629Z,70.10
2023-04-02T14:39:49.336Z,68.63
2023-04-02T14:42:22.047Z,67.97
2023-04-02T14:45:01.875Z,69.35
2023-04-02T14:47:57.591Z,69.28
2023-04-02T14:50:31.103Z,69.73
2023-04-02T14:53:03.941Z,69.32
2023-04-02T14:55:42.842Z,68.14
2023-04-02T14:58:40.846Z,68.83
2023-04-02T15:01:17.524Z,68.89
2023-04-02T15:03:58.120Z,68.60
2023-04-02T15:06:31.764Z,68.70
2023-04-02T15:09:09.416Z,70.04
2023-04-02T15:11:42.296Z,70.20
2023-04-02T15:14:21.177Z,69.55
2023-04-02T15:16:47.796Z,69.21
2023-04-02T15:19:17.895Z,68.50
2023-04-02T15:22:07.334Z,69.15
2023-04-02T15:25:09.255Z,69.27
2023-04-02T15:27:56.224Z,70.03
2023-04-02T15:30:27.179Z,68.97
2023-04-02T15:32:57.756Z,68.69
2023-04-02T15:35:24.353Z,68.85
2023-04-02T15:37:53.851Z,68.64
2023-04-02T15:40:41.368Z,67.62
2023-04-02T15:43:48.505Z,68.89
2023-04-02T15:46:42.461Z,68.52
2023-04-02T15:49:09.003Z,69.14
2023-04-02T15:51:51.551Z,70.05
2023-04-02T15:54:36.233Z,69.27
2023-04-02T15:57:29.045Z,69.54
2023-04-02T16:00:17.067Z,68.38
2023-04-02T16:02:58.804Z,70.26
2023-04-02T16:05:40.078Z,69.36
2023-04-02T16:08:24.703Z,68.65
2023-04-02T16:10:51.492Z,69.58
2023-04-02T16:13:36.826Z,70.07
2023-04-02T16:16:21.062Z,69.34
2023-04-02T16:19:05.827Z,69.72
2023-04-02T16:21:54.722Z,69.35
2023-04-02T16:24:22.578Z,70.46
2023-04-02T16:27:05.778Z,70.66
2023-04-02T16:29:47.489Z,70.96
2023-04-02T16:32:52.399Z,68.53
2023-04-02T16:35:53.029Z,70.68
2023-04-02T16:38:28.824Z,68.86
2023-04-02T16:41:14.078Z,69.17
2023-04-02T16:44:22.159Z,69.85
2023-04-02T16:47:27.350Z,68.85
2023-04-02T16:50:11.006Z,68.31
2023-04-02T16:52:45.843Z,69.25
2023-04-02T16:55:12.394Z,68.86
2023-04-02T16:57:55.605Z,68.47
2023-04-02T17:00:43.333Z,68.35
2023-04-02T17:03:34.759Z,69.66
2023-04-02T17:06:06.213Z,69.77
2023-04-02T17:08:40.847Z,69.20
2023-04-02T17:11:09.898Z,70.32
2023-04-02T17:14:06.237Z,70.66
2023-04-02T17:16:45.836Z,70.02
2023-04-02T17:19:16.829Z,69.81
2023-04-02T17:21:47.423Z,70.38
2023-04-02T17:24:17.032Z,70.84
2023-04-02T17:26:47.597Z,71.02
2023-04-02T17:29:27.059Z,71.13
2023-04-02T17:32:01.781Z,70.73
2023-04-02T17:34:29.058Z,70.33
2023-04-02T17:37:12.356Z,70.61
2023-04-02T17:39:53.333Z,70.61
2023-04-02T17:42:44.824Z,71.20
2023-04-02T17:45:28.485Z,70.53
2023-04-02T17:48:03.212Z,70.40
2023-04-02T17:50:59.485Z,70.66
2023-04-02T17:53:56.648Z,72.00
2023-04-02T17:56:26.646Z,71.20
2023-04-02T17:59:27.741Z,71.68
2023-04-02T18:02:47.034Z,72.55
2023-04-02T18:05:27.451Z,72.06
2023-04-02T18:08:28.597Z,71.69
2023-04-02T18:11:19.476Z,71.88
2023-04-02T18:13:58.651Z,72.01
2023-04-02T18:16:34.214Z,72.00
2023-04-02T18:19:18.056Z,72.54
2023-04-02T18:21:50.660Z,72.68
2023-04-02T18:24:27.987Z,72.19
2023-04-02T18:27:12.041Z,72.27
2023-04-02T18:29:52.175Z,72.91
2023-04-02T18:32:36.310Z,73.47
2023-04-02T18:35:30.665Z,72.47
2023-04-02T18:37:57.245Z,73.34
2023-04-02T18:40:39.141Z,73.33
2023-04-02T18:43:35.742Z,72.26
2023-04-02T18:46:25.991Z,72.98
2023-04-02T18:49:00.697Z,74.29
2023-04-02T18:51:34.489Z,74.28
2023-04-02T18:54:19.161Z,73.62
2023-04-02T18:56:45.926Z,73.73
2023-04-02T18:59:17.718Z,73.97
2023-04-02T19:01:48.720Z,73.94
2023-04-02T19:04:22.128Z,73.66
2023-04-02T19:06:53.998Z,74.11
2023-04-02T19:09:30.891Z,73.89
2023-04-02T19:11:57.520Z,73.91
2023-04-02T19:14:24.199Z,73.85
2023-04-02T19:17:09.668Z,73.98
2023-04-02T19:19:44.848Z,74.09
2023-04-02T19:22:37.335Z,73.89
2023-04-02T19:25:21.215Z,73.65
2023-04-02T19:27:58.061Z,73.41
2023-04-02T19:30:33.837Z,73.15
2023-04-02T19:33:18.438Z,73.88
2023-04-02T19:35:53.853Z,74.78
2023-04-02T19:38:29.581Z,73.56
2023-04-02T19:41:15.668Z,74.35
2023-04-02T19:43:42.338Z,74.79
2023-04-02T19:46:09.180Z,74.64
2023-04-02T19:48:44.561Z,74.87
2023-04-02T19:51:11.219Z,75.03
2023-04-02T19:53:37.792Z,74.20
2023-04-02T19:56:04.414Z,74.36
2023-04-02T19:58:35.260Z,74.04
2023-04-02T20:01:02.414Z,73.41
2023-04-02T20:03:30.362Z,73.97
2023-04-02T20:05:59.484Z,73.35
2023-04-02T20:08:27.510Z,74.13
2023-04-02T20:10:55.480Z,73.91
2023-04-02T20:13:22.150Z,73.73
2023-04-02T20:15:49.718Z,74.00
2023-04-02T20:18:16.364Z,73.14
2023-04-02T20:20:45.974Z,73.39
2023-04-02T20:23:13.272Z,73.47
2023-04-02T20:25:52.691Z,74.01
2023-04-02T20:28:20.911Z,73.67
2023-04-02T20:30:50.290Z,74.01
2023-04-02T20:33:18.608Z,73.95
2023-04-02T20:35:45.507Z,74.24
2023-04-02T20:38:12.208Z,72.95
2023-04-02T20:40:41.435Z,72.68
2023-04-02T20:43:09.787Z,73.85
2023-04-02T20:45:37.893Z,73.19
2023-04-02T20:48:05.133Z,73.29
2023-04-02T20:50:31.976Z,72.23
2023-04-02T20:53:00.271Z,71.37
2023-04-02T20:55:26.991Z,71.21
2023-04-02T20:57:53.645Z,71.49
2023-04-02T21:00:20.953Z,70.32
2023-04-02T21:02:47.590Z,70.22
2023-04-02T21:05:14.214Z,69.86
2023-04-02T21:07:40.909Z,69.57
2023-04-02T21:10:07.771Z,68.95
2023-04-02T21:12:34.541Z,69.02
2023-04-02T21:15:02.746Z,68.45
2023-04-02T21:17:30.057Z,69.20
2023-04-02T21:19:56.736Z,69.13
2023-04-02T21:22:23.802Z,68.23
2023-04-02T21:24:50.502Z,68.55
2023-04-02T21:27:17.361Z,69.29
2023-04-02T21:29:43.932Z,70.16
2023-04-02T21:32:20.799Z,69.32
2023-04-02T21:34:48.211Z,69.68
2023-04-02T21:37:14.768Z,68.55
2023-04-02T21:39:41.482Z,67.95
2023-04-02T21:42:08.116Z,69.00
2023-04-02T21:44:34.733Z,67.81
2023-04-02T21:47:01.319Z,69.00
2023-04-02T21:49:29.675Z,68.20
2023-04-02T21:51:56.308Z,69.17
2023-04-02T21:54:22.967Z,68.42
2023-04-02T21:56:49.834Z,68.23
2023-04-02T21:59:17.364Z,68.30
2023-04-02T22:01:48.287Z,68.63
2023-04-02T22:04:20.555Z,68.18
2023-04-02T22:06:48.006Z,67.97
2023-04-02T22:09:18.685Z,67.62
2023-04-02T22:11:46.574Z,68.12
2023-04-02T22:14:13.833Z,68.15
2023-04-02T22:16:41.115Z,68.40
2023-04-02T22:19:10.622Z,67.75
2023-04-02T22:21:38.103Z,68.38
2023-04-02T22:24:06.900Z,68.38
2023-04-02T22:26:34.341Z,67.09
2023-04-02T22:29:01.680Z,67.68
2023-04-02T22:31:30.861Z,67.14
2023-04-02T22:33:58.726Z,68.03
2023-04-02T22:36:29.317Z,68.45
2023-04-02T22:38:56.704Z,67.25
2023-04-02T22:41:28.966Z,68.55
2023-04-02T22:43:56.560Z,67.54
2023-04-02T22:46:24.897Z,67.36
2023-04-02T22:48:51.529Z,67.67
2023-04-02T22:51:20.691Z,68.25
2023-04-02T22:53:48.306Z,68.00
2023-04-02T22:56:18.506Z,66.89
2023-04-02T22:58:45.965Z,67.58
2023-04-02T23:01:24.998Z,66.50
2023-04-02T23:03:54.281Z,66.68
2023-04-02T23:06:21.574Z,66.54
2023-04-02T23:08:48.337Z,67.51
2023-04-02T23:11:21.958Z,66.22
2023-04-02T23:13:50.548Z,67.16
2023-04-02T23:16:18.110Z,65.40
2023-04-02T23:18:47.938Z,66.27
2023-04-02T23:21:15.997Z,65.92
2023-04-02T23:23:42.837Z,66.80
2023-04-02T23:26:13.853Z,66.91
2023-04-02T23:28:40.941Z,66.75
2023-04-02T23:31:11.840Z,66.52
2023-04-02T23:33:38.687Z,66.39
2023-04-02T23:36:10.345Z,65.95
2023-04-02T23:38:37.029Z,67.11
2023-04-02T23:41:03.779Z,67.41
2023-04-02T23:43:30.407Z,67.65
2023-04-02T23:45:57.067Z,66.03
2023-04-02T23:48:23.768Z,65.10
2023-04-02T23:50:50.542Z,66.45
2023-04-02T23:53:18.620Z,66.80
2023-04-02T23:55:45.776Z,66.63
2023-04-02T23:58:12.448Z,66.63
